Assumption, IL

11:45 AM CDT on May 25, 2015 (GMT -0500)
Capital | | Change Station
CLOSE
Current Station
Airport
Location: Springfield,
Elevation: 594 ft
Nearby Weather Stations

Elev 594 ft 39.85 °N, 89.68 °W | Updated 5 minutes ago

Partly Cloudy
Partly Cloudy
75 °F
Feels Like 75 °F
N
14
Wind Variable Wind from SW

Today
High -- | Low -- °F
--% Chance of Precip.
Yesterday
High -- | Low -- °F
Precip. -- in
5:34 AM 8:12 PM
Waxing Crescent, 50% visible
Pressure 30.00 in
Visibility 10.0 miles
Clouds Scattered Clouds 2800 ft
Mostly Cloudy 3500 ft
Dew Point 62 °F
Humidity 64%
Rainfall 0.10 in
Snow Depth Not available.
UV 6 out of 12
Pollen 8.70 out of 12
Air Quality Not available.
Flu Activity Sporadic
SPECI KSPI 251640Z 23012KT 10SM SCT028 BKN035 24/17 A3000 RMK AO2 T02390167

More Conditions Fewer Conditions

Pressure 30.00 in
Visibility 10.0 miles
Clouds Scattered Clouds 2800 ft
Mostly Cloudy 3500 ft
Dew Point 62 °F
Humidity 64%
Rainfall 0.10 in
Snow Depth Not available.
UV 6 out of 12
Pollen 8.70 out of 12
Air Quality Not available.
Flu Activity Sporadic
SPECI KSPI 251640Z 23012KT 10SM SCT028 BKN035 24/17 A3000 RMK AO2 T02390167

More Conditions Fewer Conditions

10-Day Weather Forecast

Almanac

Astronomy

May. 25, 2015 Rise Set
Actual Time
Civil Twilight
Nautical Twilight
Astronomical Twilight
Moon
Length of Visible Light
Length of Day
Tomorrow will be .
, % of the Moon is Illuminated

Today's Extremes

State Highs State Lows

Community

WunderPhotos

Upload Photos

1,824,057 photos uploaded!

WunderBlogs® & News

Nearby

Air Quality

  Air Quality AQ Index Pollutant
Not available.

Snow Depth

Station Depth Elevation

Earthquake Activity

City Distance Mag. Time & Date
Minimum magnitude displayed is 2.5.

Coastal Water Temperatures

Place Temperature

Stations

Nearby Weather Stations

Station Location Temp. Windchill Dew Point Humidity Wind Precip. Elev Updated Type